Tiempo atmosférico en la estación meteorológica de San Sebastián De La Gomera, Santa Cruz de Tenerife (15 m.)



Fecha
DESCASC
Temp. máxima en grados centígrados (hora)
DESCASC
Temp. mínima en grados centígrados (hora)
DESCASC
Temp. media en grados centígrados
DESCASC
Racha de viento máxima en m/sg (hora)
DESCASC
Velocidad máxima media en intervalos de 10 minutos(hora)
DESCASC
Precipitaciones diarias en mm
DESCASC
Precipitaciones de 00:00 a 06:00 en mm
DESCASC
Precipitaciones de 06:00 a 12:00 en mm
DESCASC
Precipitaciones de 12:00 a 18:00 en mm
DESCASC
Precipitaciones de 18:00 a 24:00 en mm
DESCASC
22-04-2019 22.6 (18:50) 16.9 (08:10) 19.8 11.67 (19:40) 6.11 (16:40) 0 0 0 0 0
21-04-2019 22.4 (15:10) 18.1 (05:10) 20.3 13.06 (13:20) 5.56 (23:40) 0 0 0 0 0
20-04-2019 21.9 (13:50) 17.4 (06:50) 19.6 14.72 (03:40) 6.39 (00:10) 0 0 0 0 0
19-04-2019 21.6 (15:10) 17.7 (05:20) 19.7 17.22 (08:50) 8.61 (09:00) 0 0 0 0 0
18-04-2019 22 (16:10) 17.9 (00:00) 19.9 15.56 (12:30) 5.28 (05:20) 0 0 0 0 0
17-04-2019 22 (15:40) 15.5 (00:00) 18.8 12.5 (17:10) 6.94 (16:30) 0 0 0 0 0
16-04-2019 22.3 (17:40) 16.6 (00:00) 19.4 7.78 (12:10) 5.28 (12:20) 0 0 0 0 0
15-04-2019 23.3 (13:20) 18.5 (00:00) 20.9 11.11 (02:50) 5.28 (15:00) 0 0 0 0 0
14-04-2019 22.8 (18:40) 15.4 (00:00) 19.1 10.28 (01:10) 5.83 (01:10) 0 0 0 0 0
13-04-2019 22.5 (13:20) 17.6 (00:00) 20.1 16.39 (04:20) 6.39 (04:10) 0 0 0 0 0
12-04-2019 21.4 (12:50) 17.3 (00:00) 19.3 18.61 (01:10) 10 (01:10) 0 0 0 0 0
11-04-2019 21.6 (14:20) 17.3 (00:00) 19.4 15.28 (23:59) 7.5 (23:59) 0 0 0 0 0
10-04-2019 21.7 (15:10) 17.3 (00:00) 19.5 15 (00:10) 6.39 (04:00) 0 0 0 0 0
09-04-2019 22.4 (13:30) 16.2 (00:00) 19.3 12.5 (23:59) 5.56 (23:30) 0 0 0 0 0
08-04-2019 22.7 (16:10) 17.3 (00:00) 20 10.28 (12:00) 4.72 (18:50) 0 0 0 0 0
07-04-2019 21.8 (14:20) 15.1 (00:00) 18.4 7.22 (13:00) 3.89 (12:00) 0 0 0 0 0
06-04-2019 21 (14:40) 16.8 (00:00) 18.9 15 (04:00) 6.67 (01:40) 0.1 0.1 0 0 0
05-04-2019 20.9 (15:40) 15.4 (00:00) 18.1 16.94 (18:00) 5.83 (02:30) 0 0 0 0 0
04-04-2019 21.2 (14:20) 14.4 (00:00) 17.8 12.78 (10:00) 6.11 (15:20) 0.4 0.4 0 0 0
03-04-2019 21.6 (14:00) 14.4 (07:20) 18 10.28 (18:40) 5.28 (18:40) 0 0 0 0 0
02-04-2019 18.7 (15:10) 15.1 (00:00) 16.9 9.72 (20:20) 4.44 (20:00) 2.5 0 2.5 0 0
01-04-2019 21.4 (11:50) 15.1 (00:00) 18.3 12.5 (22:30) 6.67 (22:30) 6 0 0 0 6
31-03-2019 23 (16:20) 15.8 (00:00) 19.4 11.11 (15:30) 4.44 (15:30) 0 0 0 0 0
30-03-2019 23.3 (15:40) 14.7 (00:00) 19 10.83 (12:40) 4.17 (10:10) 0 0 0 0 0
29-03-2019 22.3 (13:40) 14.8 (00:00) 18.5 7.22 (03:20) 3.61 (04:20) 8.3 8.3 0 0 0
28-03-2019 21.8 (13:30) 15.4 (00:00) 18.6 5 (04:30) 3.06 (05:00) 0 0 0 0 0
27-03-2019 22.3 (12:00) 16.7 (00:00) 19.5 9.72 (00:50) 5.28 (00:50) 0.5 0 0 0.5 0
26-03-2019 21.4 (13:20) 13.4 (00:00) 17.4 12.78 (22:10) 6.67 (22:00) 0 0 0 0 0
25-03-2019 18.7 (14:00) 14.6 (00:00) 16.7 6.39 (06:20) 3.61 (19:30) 13.3 0 8 0.4 4.9

Gráficas

Temp. máximas Temp. mínimas Temp. medias Precipitaciones Rachas de viento máximas Velocidades máximas media en intervalos de 10 minutos

Datos horarios

Fecha y hora oficial Temperatura (ºC) Velocidad del viento (km/h) Dirección del viento Racha (km/h) Dirección de racha Precipitación (mm) Presión (hPa) Tendencia (hPa) Humedad (%)
2019-04-23 23:00:00 18 15 Norte 46 Noroeste 0 1015 2.1 75
2019-04-23 22:00:00 18.2 21 Noroeste 45 Noroeste 0 1014 1.2 76
2019-04-23 21:00:00 18.3 14 Norte 36 Norte 0 1013.4 0.7 74
2019-04-23 20:00:00 18.6 14 Noroeste 42 Norte 0 1012.9 -0.2 71
2019-04-23 19:00:00 19.1 14 Norte 40 Noroeste 0 1012.8 -0.7 70
2019-04-23 18:00:00 19.6 14 Norte 39 Norte 0 1012.7 -1 70
2019-04-23 17:00:00 18.6 11 Norte 36 Nordeste 0 1013.1 -0.6 79
2019-04-23 16:00:00 17.5 12 Noroeste 39 Noroeste 0 1013.5 0.1 89
2019-04-23 15:00:00 18.1 19 Norte 37 Noroeste 0 1013.7 0.2 89
2019-04-23 14:00:00 18.8 12 Noroeste 36 Norte 0 1013.7 0.6 91
2019-04-23 13:00:00 21.3 11 Noroeste 36 Norte 0 1013.4 1 76
2019-04-23 12:00:00 20.3 19 Norte 39 Nordeste 0 1013.5 1.5 73
2019-04-23 11:00:00 21.1 9 Norte 38 Norte 0 1013.1 1.5 68
2019-04-23 10:00:00 20.3 11 Norte 39 Noroeste 0 1012.4 1 72
2019-04-23 09:00:00 19.2 11 Norte 31 Norte 0 1012 1 70
2019-04-23 08:00:00 18.8 11 Norte 41 Norte 0 1011.6 0.3 73
2019-04-23 07:00:00 18.7 12 Norte 30 Noroeste 0 1011.4 0 74
2019-04-23 06:00:00 18.8 12 Noroeste 35 Nordeste 0 1011 -1.2 74
2019-04-23 05:00:00 18.8 10 Norte 35 Norte 0 1011.3 -1.3 74
2019-04-23 04:00:00 18.8 13 Noroeste 37 Norte 0 1011.4 -1.5 74
2019-04-23 03:00:00 18.9 15 Norte 40 Norte 0 1012.2 -0.4 76
2019-04-23 02:00:00 18.7 13 Norte 36 Nordeste 0 1012.6 -0.2 77
2019-04-23 01:00:00 18.9 11 Noroeste 35 Noroeste 0 1012.9 1.2 74
2019-04-23 00:00:00 18.9 12 Noroeste 35 Norte 0 1012.6 1.5 76
2019-04-22 23:00:00 19.3 9 Norte 28 Noroeste 0 1012.8 1.3 73
2019-04-22 22:00:00 20.3 11 Norte 36 Noroeste 0 1011.7 0.3 65
2019-04-22 21:00:00 19.6 15 Noroeste 39 Noroeste 0 1011.1 -0.8 72
2019-04-22 20:00:00 20.3 13 Noroeste 42 Noroeste 0 1011.5 -0.1 68
2019-04-22 19:00:00 21.3 18 Noroeste 39 Oeste 0 1011.4 -0.4 67
2019-04-22 18:00:00 20.8 15 Sur 24 Sur 0 1011.9 -1.1 77
2019-04-22 17:00:00 20.5 16 Sur 30 Sur 0 1011.6 -1.3 80
2019-04-22 16:00:00 21.3 10 Sur 16 Sudeste 0 1011.8 -1.5 76
2019-04-22 15:00:00 20.4 14 Sur 26 Sur 0 1013 -0.6 82
2019-04-22 14:00:00 20.4 14 Sur 23 Sur 0 1012.9 -0.7 81
2019-04-22 13:00:00 20 11 Sur 18 Sur 0 1013.3 0.3 83
2019-04-22 12:00:00 20.4 9 Sudeste 19 Sur 0 1013.6 0.7 82
2019-04-22 11:00:00 19.8 11 Sur 20 Sur 0 1013.6 0.9 83
2019-04-22 10:00:00 21 11 Noroeste 27 Norte 0 1013 0.8 64
2019-04-22 09:00:00 18.4 3 Oeste 8 Oeste 0 1012.9 0.6 80
2019-04-22 08:00:00 17 3 Oeste 7 Sudoeste 0 1012.7 0.2 82
2019-04-22 07:00:00 17.5 3 Oeste 20 Norte 0 1012.2 -0.2 80
2019-04-22 06:00:00 18.4 12 Norte 18 Norte 0 1012.3 -0.9 76
2019-04-22 05:00:00 18.2 0 Calma 27 Nordeste 0 1012.5 -1.5 80
2019-04-22 04:00:00 18.9 10 Norte 24 Norte 0 1012.4 -1.8 74
2019-04-22 03:00:00 18.8 12 Norte 30 Nordeste 0 1013.2 -1.4 76
2019-04-22 02:00:00 19 12 Norte 31 Norte 0 1014 -0.9 77
2019-04-22 01:00:00 19 13 Norte 28 Norte 0 1014.2 -0.1 77
2019-04-22 00:00:00 19.1 16 Norte 34 Norte 0 1014.6 0.8 79
2019-04-21 23:00:00 19 15 Norte 36 Nordeste 0 1014.9 1.4 80
2019-04-21 22:00:00 19.1 14 Norte 31 Noroeste 0 1014.3 0.8 80
2019-04-21 21:00:00 19.5 10 Norte 33 Noroeste 0 1013.8 0.2 81
2019-04-21 20:00:00 19.6 11 Noroeste 35 Oeste 0 1013.5 -0.3 80
2019-04-21 19:00:00 20.2 14 Noroeste 36 Norte 0 1013.5 -0.7 76
2019-04-21 18:00:00 20.8 11 Noroeste 36 Oeste 0 1013.6 -0.9 73
2019-04-21 17:00:00 21.2 14 Noroeste 41 Oeste 0 1013.8 -1 69
2019-04-21 16:00:00 21.5 17 Noroeste 39 Noroeste 0 1014.2 -0.7 70
2019-04-21 15:00:00 21.5 11 Noroeste 33 Nordeste 0 1014.5 -- 66
2019-04-21 14:00:00 21 10 Norte 47 Norte 0 1014.8 -0.2 70
2019-04-21 13:00:00 21.2 13 Norte 35 Nordeste 0 1014.9 0.2 69
2019-04-21 12:00:00 -- -- -- -- -- -- -- -- --
2019-04-21 11:00:00 20.2 10 Noroeste 40 Noroeste 0 1015 1.3 74
2019-04-21 10:00:00 19.6 11 Norte 36 Nordeste 0 1014.7 1.5 77
2019-04-21 09:00:00 18.6 12 Norte 36 Nordeste 0 1014.1 1.4 78
2019-04-21 08:00:00 18.3 13 Norte 36 Norte 0 1013.7 0.7 81
2019-04-21 07:00:00 18.2 13 Norte 39 Noroeste 0 1013.2 -0.2 79
2019-04-21 06:00:00 18.3 18 Norte 39 Norte 0 1012.7 -1 79
2019-04-21 05:00:00 18.2 13 Norte 41 Nordeste 0 1013 -1.4 78
2019-04-21 04:00:00 18.3 14 Norte 35 Norte 0 1013.4 -1.9 80
2019-04-21 03:00:00 18.5 14 Noroeste 38 Noroeste 0 1013.7 -1.9 72
2019-04-21 02:00:00 18.6 17 Norte 44 Nordeste 0 1014.4 -1.2 80
2019-04-21 01:00:00 18.3 11 Norte 35 Noroeste 0 1015.3 0 77
2019-04-21 00:00:00 18.5 13 Norte 48 Nordeste 0 1015.6 0.9 78
2019-04-20 23:00:00 18.4 13 Norte 34 Norte 0 1015.6 1.4 78
2019-04-20 22:00:00 18.6 11 Noroeste 35 Norte 0 1015.3 1.2 76
2019-04-20 21:00:00 18.5 12 Norte 38 Norte 0 1014.7 0.7 77
2019-04-20 20:00:00 18.6 14 Norte 36 Norte 0 1014.2 -0.2 75
2019-04-20 19:00:00 19.5 15 Norte 33 Noroeste 0 1014.1 -0.5 70
2019-04-20 18:00:00 19.7 13 Noroeste 44 Oeste 0 1014 -1.1 72
2019-04-20 17:00:00 20.7 15 Noroeste 40 Noroeste 0 1014.4 -1.3 66
2019-04-20 16:00:00 21.3 12 Noroeste 45 Nordeste 0 1014.6 -1.1 65
2019-04-20 15:00:00 20 18 Norte 44 Norte 0 1015.1 -0.8 69
2019-04-20 14:00:00 21.3 10 Norte 36 Oeste 0 1015.7 0.4 64
2019-04-20 13:00:00 20.4 10 Norte 36 Noroeste 0 1015.7 0.6 62
2019-04-20 12:00:00 19.8 9 Norte 40 Nordeste 0 1015.9 1 68
2019-04-20 11:00:00 19.4 17 Norte 44 Norte 0 1015.3 0.7 68
2019-04-20 10:00:00 18.7 13 Norte 40 Norte 0 1015.1 1 68
2019-04-20 09:00:00 18.3 15 Norte 37 Norte 0 1014.9 0.7 73
2019-04-20 08:00:00 17.6 13 Norte 45 Noroeste 0 1014.6 0.3 74
2019-04-20 07:00:00 17.5 19 Noroeste 46 Noroeste 0 1014.1 -0.7 74
2019-04-20 06:00:00 17.7 18 Norte 48 Norte 0 1014.2 -1.5 72
2019-04-20 05:00:00 17.9 18 Norte 49 Noroeste 0 1014.3 -2 69
2019-04-20 04:00:00 17.9 17 Norte 53 Nordeste 0 1014.8 -1.9 68
2019-04-20 03:00:00 17.7 19 Norte 49 Norte 0 1015.7 -1.2 74
2019-04-20 02:00:00 17.9 18 Norte 49 Nordeste 0 1016.3 -0.4 75
2019-04-20 01:00:00 18 19 Norte 53 Norte 0 1016.7 -0.3 75
2019-04-20 00:00:00 17.9 25 Norte 58 Oeste 0 1016.9 0.3 73
2019-04-19 23:00:00 18 22 Norte 43 Noroeste 0 1016.7 -0.1 73
2019-04-19 22:00:00 18 18 Norte 47 Norte 0 1017 0.1 74
2019-04-19 21:00:00 18.1 19 Norte 44 Norte 0 1016.6 -0.7 71
2019-04-19 20:00:00 18.4 16 Norte 42 Nordeste 0 1016.8 -0.6 70
2019-04-19 19:00:00 19.4 17 Norte 43 Nordeste 0 1016.9 -0.7 68
2019-04-19 18:00:00 19.4 14 Norte 38 Norte 0 1017.3 -0.9 69
2019-04-19 17:00:00 19.5 13 Norte 35 Nordeste 0 1017.4 -1 67
2019-04-19 16:00:00 19.7 15 Noroeste 39 Noroeste 0 1017.6 -1.1 65
2019-04-19 15:00:00 20.7 10 Norte 39 Noroeste 0 1018.2 -0.4 65
2019-04-19 14:00:00 21 14 Norte 48 Nordeste 0 1018.4 0.5 65
2019-04-19 13:00:00 19.4 16 Norte 51 Nordeste 0 1018.7 1.5 65
2019-04-19 12:00:00 20 10 Norte 50 Norte 0 1018.6 2.2 63
2019-04-19 11:00:00 19 17 Norte 54 Norte 0 1017.9 1.5 68
2019-04-19 10:00:00 18.7 26 Norte 60 Noroeste 0 1017.2 1 70
2019-04-19 09:00:00 18.2 31 Norte 62 Noroeste 0 1016.4 0.5 70
2019-04-19 08:00:00 17.8 24 Noroeste 58 Norte 0 1016.4 0.4 72
2019-04-19 07:00:00 17.9 24 Norte 62 Nordeste 0 1016.2 -0.1 71
2019-04-19 06:00:00 17.8 22 Noroeste 56 Oeste 0 1015.9 -1.5 72
2019-04-19 05:00:00 17.9 26 Norte 62 Norte 0 1016 -2.2 73
2019-04-19 04:00:00 17.9 28 Norte 55 Noroeste 0 1016.3 -2 75
2019-04-19 03:00:00 18 21 Norte 57 Norte 0 1017.4 -1.2 74
2019-04-19 02:00:00 18.1 18 Norte 52 Nordeste 0 1018.2 -0.3 77
2019-04-19 01:00:00 18.3 17 Norte 47 Noroeste 0 1018.3 0 77
2019-04-19 00:00:00 18.2 15 Norte 44 Nordeste 0 1018.6 0.6 77
2019-04-18 23:00:00 18.3 19 Norte 43 Norte 0 1018.5 1 74
2019-04-18 22:00:00 18.5 13 Norte 47 Norte 0 1018.3 1 74
2019-04-18 21:00:00 18.5 14 Norte 36 Norte 0 1018 0.7 74
2019-04-18 20:00:00 18.7 13 Noroeste 37 Norte 0 1017.5 0.1 72
2019-04-18 19:00:00 19 12 Norte 35 Nordeste 0 1017.3 -0.3 70
2019-04-18 18:00:00 19.2 12 Noroeste 34 Noroeste 0 1017.3 -0.4 69
2019-04-18 17:00:00 20 12 Norte 40 Nordeste 0 1017.4 -0.2 68
2019-04-18 16:00:00 20.7 12 Norte 50 Este 0 1017.6 -0.4 66
2019-04-18 15:00:00 21.1 14 Norte 35 Norte 0 1017.7 -0.2 67
2019-04-18 14:00:00 20.5 15 Norte 43 Nordeste 0 1017.6 -0.1 66
2019-04-18 13:00:00 20.2 17 Norte 56 Noroeste 0 1018 0.5 66
2019-04-18 12:00:00 19.7 14 Norte 43 Noroeste 0 1017.9 0.8 68
2019-04-18 11:00:00 19.5 16 Norte 40 Noroeste 0 1017.7 1.5 71
2019-04-18 10:00:00 19.5 12 Norte 45 Norte 0 1017.5 1.6 72
2019-04-18 09:00:00 18.5 15 Norte 43 Noroeste 0 1017.1 1.6 74
2019-04-18 08:00:00 18 15 Norte 37 Nordeste 0 1016.2 0.8 77
2019-04-18 07:00:00 18.1 10 Norte 36 Nordeste 0 1015.9 0 77
2019-04-18 06:00:00 18 14 Norte 42 Noroeste 0 1015.5 -0.9 77
2019-04-18 05:00:00 18 17 Norte 36 Norte 0 1015.4 -1.2 75
2019-04-18 04:00:00 18.2 16 Noroeste 41 Noroeste 0 1015.9 -1 76
2019-04-18 03:00:00 18.4 13 Norte 37 Nordeste 0 1016.4 -0.8 76
2019-04-18 02:00:00 18.4 12 Norte 35 Norte 0 1016.6 0.1 75
2019-04-18 01:00:00 18.7 12 Norte 30 Nordeste 0 1016.9 1.1 75
2019-04-18 00:00:00 18.8 10 Norte 28 Nordeste 0 1017.2 2.6 74
2019-04-17 23:00:00 18.9 14 Norte 40 Noroeste 0 1016.5 2.6 74
2019-04-17 22:00:00 18.9 20 Noroeste 41 Noroeste 0 1015.8 2.4 74
2019-04-17 21:00:00 19.2 11 Noroeste 35 Oeste 0 1014.6 1.5 73
2019-04-17 20:00:00 19.8 13 Noroeste 35 Noroeste 0 1013.9 0.9 71
2019-04-17 19:00:00 20.8 14 Norte 44 Noroeste 0 1013.4 0.1 65
2019-04-17 18:00:00 21.1 23 Noroeste 45 Noroeste 0 1013.1 -0.3 57
2019-04-17 17:00:00 21.3 21 Noroeste 45 Noroeste 0 1013 -0.4 64
2019-04-17 16:00:00 21.2 19 Noroeste 37 Noroeste 0 1013.3 -0.7 68
2019-04-17 15:00:00 21 13 Noroeste 37 Noroeste 0 1013.4 -0.5 73
2019-04-17 14:00:00 21.6 18 Noroeste 37 Noroeste 0 1013.4 -0.1 71
2019-04-17 13:00:00 21 19 Noroeste 39 Noroeste 0 1014 0.8 71
2019-04-17 12:00:00 21 7 Norte 31 Noroeste 0 1013.9 1.2 80
2019-04-17 11:00:00 20.8 5 Este 13 Este 0 1013.5 1.3 72
2019-04-17 10:00:00 20.3 4 Este 10 Norte 0 1013.2 1.5 68
2019-04-17 09:00:00 17.5 9 Norte 15 Noroeste 0 1012.7 1.1 71
2019-04-17 08:00:00 15.9 9 Noroeste 15 Noroeste 0 1012.2 0.5 77
2019-04-17 07:00:00 15.8 7 Noroeste 13 Noroeste 0 1011.7 -0.2 77
2019-04-17 06:00:00 15.9 8 Noroeste 13 Noroeste 0 1011.6 -0.8 77
2019-04-17 05:00:00 16.2 6 Norte 14 Noroeste 0 1011.7 -1 77
2019-04-17 04:00:00 16.2 8 Noroeste 13 Noroeste 0 1011.9 -1.5 77
2019-04-17 03:00:00 16.8 7 Norte 14 Norte 0 1012.4 -1.2 76
2019-04-17 02:00:00 17.4 9 Noroeste 14 Noroeste 0 1012.7 -0.7 74
2019-04-17 01:00:00 18.2 5 Noroeste 14 Noroeste 0 1013.4 0.3 72
2019-04-17 00:00:00 18.8 6 Noroeste 14 Noroeste 0 1013.6 1.3 71
2019-04-16 23:00:00 19.6 10 Noroeste 20 Norte 0 1013.4 1.4 68
2019-04-16 22:00:00 19.8 0 Calma 10 Sur 0 1013.1 1.3 82
2019-04-16 21:00:00 19.8 4 Sur 11 Norte 0 1012.3 0.4 86
2019-04-16 20:00:00 19.9 5 Norte 13 Norte 0 1012 -0.6 82
2019-04-16 19:00:00 20.8 6 Norte 20 Nordeste 0 1011.8 -1.9 80
2019-04-16 18:00:00 21.4 6 Este 13 Sudeste 0 1011.9 -2.6 80
2019-04-16 17:00:00 20.9 8 Sudeste 17 Sur 0 1012.6 -2.6 84
2019-04-16 16:00:00 19.9 9 Sur 20 Sur 0 1013.7 -2.1 86
2019-04-16 15:00:00 19.9 17 Sur 26 Sur 0 1014.5 -1.5 85
2019-04-16 14:00:00 19.9 15 Sur 22 Sur 0 1015.2 -0.6 86
2019-04-16 13:00:00 19.9 17 Sur 28 Sur 0 1015.8 0 85
2019-04-16 12:00:00 19.8 17 Sur 26 Sur 0 1016 0.8 85
2019-04-16 11:00:00 19.5 17 Sur 21 Sur 0 1015.8 1 82
2019-04-16 10:00:00 19.6 8 Sudeste 20 Sudeste 0 1015.8 1.6 78
2019-04-16 09:00:00 18.4 7 Norte 13 Norte 0 1015.2 1 77
2019-04-16 08:00:00 16.7 6 Noroeste 13 Noroeste 0 1014.8 0.4 82
2019-04-16 07:00:00 16.8 9 Noroeste 14 Noroeste 0 1014.2 -0.9 82
2019-04-16 06:00:00 17.2 5 Noroeste 12 Noroeste 0 1014.2 -1.6 80
2019-04-16 05:00:00 17.5 6 Noroeste 13 Noroeste 0 1014.4 -1.8 77
2019-04-16 04:00:00 17.7 5 Noroeste 10 Noroeste 0 1015.1 -2 80
2019-04-16 03:00:00 17.9 4 Noroeste 7 Oeste 0 1015.8 -1.8 86
2019-04-16 02:00:00 18.1 0 Calma -- -- 0 1016.2 -1.2 83
2019-04-16 01:00:00 18.7 0 Calma 6 Sur 0 1017.1 -0.1 87
2019-04-16 00:00:00 19 3 Sur 7 Sudeste 0 1017.6 0.7 88
2019-04-15 23:00:00 19.3 0 Calma 6 Sur 0 1017.4 1 86
2019-04-15 22:00:00 19.4 5 Sur 10 Sur 0 1017.2 0.7 86
2019-04-15 21:00:00 19.5 4 Sudeste 8 Sur 0 1016.9 0.4 85
2019-04-15 20:00:00 20.3 3 Sur 8 Sur 0 1016.4 -0.2 81
2019-04-15 19:00:00 21.2 3 Sur 12 Sur 0 1016.5 -0.8 78
2019-04-15 18:00:00 20.7 10 Sur 17 Sur 0 1016.5 -0.7 78
2019-04-15 17:00:00 20.7 12 Sur 19 Sur 0 1016.6 -0.8 77
2019-04-15 16:00:00 20.4 12 Sur 31 Sudeste 0 1017.3 -0.3 77
2019-04-15 15:00:00 20.7 19 Sur 26 Sur 0 1017.2 -0.9 77
2019-04-15 14:00:00 20.3 18 Sur 28 Sur 0 1017.4 -0.6 77
2019-04-15 13:00:00 22.1 11 Norte 39 Norte 0 1017.6 0.1 70
2019-04-15 12:00:00 21.7 4 Sudeste 16 Este 0 1018.1 1.4 77
2019-04-15 11:00:00 20.7 8 Este 21 Este 0 1018 1.7 80
2019-04-15 10:00:00 20.4 12 Norte 29 Norte 0 1017.5 1.5 75
2019-04-15 09:00:00 19.8 15 Norte 30 Norte 0 1016.7 1.1 72
2019-04-15 08:00:00 19.1 15 Norte 36 Norte 0 1016.3 0.7 74
2019-04-15 07:00:00 19 16 Norte 33 Noroeste 0 1016 0.6 74
2019-04-15 06:00:00 18.9 16 Norte 35 Norte 0 1015.6 -0.2 75
2019-04-15 05:00:00 18.7 13 Norte 36 Norte 0 1015.6 -0.8 77
2019-04-15 04:00:00 18.8 19 Norte 35 Norte 0 1015.4 -1.1 77
2019-04-15 03:00:00 19.1 16 Norte 40 Norte 0 1015.8 -0.4 77
2019-04-15 02:00:00 19.2 15 Norte 30 Norte 0 1016.4 0.6 77
2019-04-15 01:00:00 19.6 13 Norte 30 Norte 0 1016.5 1.3 73
2019-04-15 00:00:00 19.6 13 Norte 32 Norte 0 1016.2 2.2 74
2019-04-14 23:00:00 19.6 10 Noroeste 26 Norte 0 1015.8 2 72
2019-04-14 22:00:00 19.7 9 Norte 29 Nordeste 0 1015.2 1.3 74
2019-04-14 21:00:00 19.8 17 Norte 29 Nordeste 0 1014 0.3 73
2019-04-14 20:00:00 21 0 Calma 22 Este 0 1013.8 -0.2 72
2019-04-14 19:00:00 21.5 8 Sudeste 21 Nordeste 0 1013.9 -0.4 74
2019-04-14 18:00:00 21.3 8 Sur 16 Sur 0 1013.7 -1.4 74
2019-04-14 17:00:00 20.9 13 Sur 19 Sur 0 1014 -1.1 75
2019-04-14 16:00:00 22 5 Sudeste 17 Sur 0 1014.3 -1.1 72
2019-04-14 15:00:00 20.8 9 Sur 19 Sur 0 1015.1 -0.9 74
2019-04-14 14:00:00 20.8 8 Sur 18 Sudeste 0 1015.1 -0.7 75
2019-04-14 13:00:00 21.3 5 Sudeste 16 Este 0 1015.4 -0.1 74
2019-04-14 12:00:00 20.7 5 Este 16 Este 0 1016 0.9 76
2019-04-14 11:00:00 19.8 8 Sur 19 Sur 0 1015.8 1.1 77
2019-04-14 10:00:00 20 3 Sudeste 13 Noroeste 0 1015.5 1.2 74
2019-04-14 09:00:00 16.7 10 Noroeste 18 Norte 0 1015.1 1 78
2019-04-14 08:00:00 15.5 10 Noroeste 16 Noroeste 0 1014.7 0.2 80
2019-04-14 07:00:00 15.6 10 Noroeste 14 Noroeste 0 1014.3 0 80
2019-04-14 06:00:00 16.3 6 Noroeste 10 Noroeste 0 1014.1 -1.5 83
2019-04-14 05:00:00 17.4 0 Calma 23 Noroeste 0 1014.5 -1.5 85
2019-04-14 04:00:00 18.1 12 Noroeste 31 Noroeste 0 1014.3 -2.6 77
2019-04-14 03:00:00 18.2 10 Noroeste 28 Norte 0 1015.6 -1.7 77
2019-04-14 02:00:00 18.4 14 Noroeste 37 Noroeste 0 1016 -1.4 78
2019-04-14 01:00:00 18.6 20 Norte 36 Norte 0 1016.9 -0.3 79
2019-04-14 00:00:00 18.6 15 Noroeste 40 Noroeste 0 1017.3 0.7 77
2019-04-13 23:00:00 18.6 19 Norte 36 Norte 0 1017.4 1.1 79
2019-04-13 22:00:00 19.1 8 Noroeste 19 Noroeste 0 1017.2 0.8 75
2019-04-13 21:00:00 19.2 11 Noroeste 31 Noroeste 0 1016.6 0 76
2019-04-13 20:00:00 19.4 14 Noroeste 30 Noroeste 0 1016.3 -0.1 75
2019-04-13 19:00:00 20.8 13 Noroeste 33 Noroeste 0 1016.4 -0.5 72
2019-04-13 18:00:00 21 14 Noroeste 39 Noroeste 0 1016.6 -1.1 71
2019-04-13 17:00:00 21 15 Noroeste 40 Noroeste 0 1016.4 -1.9 71
2019-04-13 16:00:00 20.7 20 Noroeste 37 Noroeste 0 1016.9 -1.5 71
2019-04-13 15:00:00 19.9 11 Sur 20 Sur 0 1017.7 -0.9 74
2019-04-13 14:00:00 19.8 18 Sur 35 Sur 0 1018.3 -0.2 75
2019-04-13 13:00:00 21.6 0 Calma 32 Norte 0 1018.4 -0.1 70
2019-04-13 12:00:00 21.1 11 Noroeste 40 Oeste 0 1018.6 0.9 68
2019-04-13 11:00:00 19.6 14 Noroeste 39 Noroeste 0 1018.5 1.2 71
2019-04-13 10:00:00 19.4 10 Noroeste 38 Oeste 0 1018.5 1.8 74
2019-04-13 09:00:00 18.6 13 Noroeste 41 Noroeste 0 1017.7 0.8 75
2019-04-13 08:00:00 18 14 Norte 32 Norte 0 1017.3 0.5 74
2019-04-13 07:00:00 18 17 Norte 39 Norte 0 1016.7 -0.6 77
2019-04-13 06:00:00 18 14 Norte 51 Noroeste 0 1016.9 -1.5 77
2019-04-13 05:00:00 18 22 Norte 59 Norte 0 1016.8 -1.9 77
2019-04-13 04:00:00 17.9 18 Noroeste 48 Norte 0 1017.3 -1.8 74
2019-04-13 03:00:00 17.8 14 Norte 39 Nordeste 0 1018.4 -0.7 77
2019-04-13 02:00:00 17.7 17 Norte 40 Norte 0 1018.7 -0.3 76
2019-04-13 01:00:00 17.9 19 Norte 46 Noroeste 0 1019.1 0.6 74
2019-04-13 00:00:00 17.9 19 Noroeste 48 Noroeste 0 1019.1 1.3 74
2019-04-12 23:00:00 18 19 Norte 50 Nordeste 0 1019 1.2 74
2019-04-12 22:00:00 18 20 Norte 41 Noroeste 0 1018.5 1.1 74
2019-04-12 21:00:00 18.1 16 Norte 40 Noroeste 0 1017.8 0.1 72
2019-04-12 20:00:00 18.4 15 Norte 45 Norte 0 1017.8 0 71
2019-04-12 19:00:00 19.2 15 Noroeste 45 Noroeste 0 1017.4 -0.5 69
2019-04-12 18:00:00 20 14 Noroeste 39 Oeste 0 1017.7 -0.1 67
2019-04-12 17:00:00 20.6 13 Noroeste 38 Noroeste 0 1017.8 -0.8 66
2019-04-12 16:00:00 21.3 14 Noroeste 48 Noroeste 0 1017.9 -1.6 68
2019-04-12 15:00:00 20.9 10 Norte 29 Nordeste 0 1017.8 -1.3 65
2019-04-12 14:00:00 21 14 Norte 42 Norte 0 1018.6 -0.3 65
2019-04-12 13:00:00 20.5 15 Noroeste 46 Norte 0 1019.5 0.8 62
2019-04-12 12:00:00 19.9 12 Norte 40 Norte 0 1019.1 0.7 70
2019-04-12 11:00:00 19.3 14 Norte 42 Norte 0 1018.9 1 70
2019-04-12 10:00:00 18.7 13 Norte 42 Noroeste 0 1018.7 1.2 71
2019-04-12 09:00:00 18.1 19 Norte 40 Norte 0 1018.4 1.2 73
2019-04-12 08:00:00 17.6 21 Noroeste 51 Norte 0 1017.9 0.4 74
2019-04-12 07:00:00 17.4 22 Norte 54 Noroeste 0 1017.5 0 72
2019-04-12 06:00:00 17.5 24 Norte 57 Noroeste 0 1017.2 -0.8 68
2019-04-12 05:00:00 17.5 23 Noroeste 51 Noroeste 0 1017.5 -1.1 73
2019-04-12 04:00:00 17.5 26 Norte 53 Norte 0 1017.5 -1.7 75
2019-04-12 03:00:00 17.6 21 Norte 48 Noroeste 0 1018 -1.1 73
2019-04-12 02:00:00 17.8 17 Noroeste 67 Noroeste 0 1018.6 -1 73
2019-04-12 01:00:00 18 35 Noroeste 66 Noroeste 0 1019.2 0.3 71
2019-04-12 00:00:00 18.1 27 Norte 55 Norte 0 1019.1 0.8 72
2019-04-11 23:00:00 18.2 22 Norte 51 Norte 0 1019.6 1.8 69
2019-04-11 22:00:00 18 25 Noroeste 53 Noroeste 0 1018.9 1.1 72
2019-04-11 21:00:00 18.3 21 Noroeste 46 Noroeste 0 1018.3 0.5 73
2019-04-11 20:00:00 18.5 16 Norte 42 Noroeste 0 1017.8 0 71
2019-04-11 19:00:00 19.1 22 Norte 48 Norte 0 1017.8 -0.7 70
2019-04-11 18:00:00 19.7 17 Noroeste 42 Noroeste 0 1017.8 -0.9 65
2019-04-11 17:00:00 19.7 14 Norte 49 Noroeste 0 1017.8 -1.4 67
2019-04-11 16:00:00 20.2 14 Noroeste 51 Oeste 0 1018.5 -1.3 67
2019-04-11 15:00:00 20.5 16 Noroeste 38 Oeste 0 1018.7 -1.5 63
2019-04-11 14:00:00 20.6 13 Norte 41 Noroeste 0 1019.2 -0.6 62
2019-04-11 13:00:00 20.7 13 Norte 42 Oeste 0 1019.8 0.2 64
2019-04-11 12:00:00 19.4 15 Norte 52 Oeste 0 1020.2 0.8 62
2019-04-11 11:00:00 18.9 16 Noroeste 49 Nordeste 0 1019.8 1.1 68
2019-04-11 10:00:00 18.4 19 Norte 46 Noroeste 0 1019.6 1.5 68
2019-04-11 09:00:00 18 17 Noroeste 42 Noroeste 0 1019.4 1.7 71
2019-04-11 08:00:00 17.6 20 Norte 48 Norte 0 1018.7 1.2 71
2019-04-11 07:00:00 17.4 21 Norte 44 Noroeste 0 1018.1 0 71
2019-04-11 06:00:00 17.4 21 Noroeste 53 Norte 0 1017.7 -1.2 71
2019-04-11 05:00:00 17.5 15 Noroeste 39 Norte 0 1017.5 -1.7 73
2019-04-11 04:00:00 17.7 16 Norte 44 Nordeste 0 1018.1 -1.5 71
2019-04-11 03:00:00 17.7 17 Norte 43 Norte 0 1018.9 -0.7 71
2019-04-11 02:00:00 17.8 16 Norte 42 Norte 0 1019.2 -0.6 73
2019-04-11 01:00:00 17.9 16 Norte 41 Noroeste 0 1019.6 0.5 70
2019-04-11 00:00:00 18.1 15 Norte 43 Noroeste 0 1019.6 0.7 71
2019-04-10 23:00:00 18.1 18 Norte 50 Norte 0 1019.8 -- 71
2019-04-10 22:00:00 18.2 16 Norte 41 Norte 0 1019.1 1 73
2019-04-10 21:00:00 18.4 15 Norte 41 Nordeste 0 1018.9 0.8 73
2019-04-10 20:00:00 -- 15 Norte 39 Nordeste 0 -- -- --
2019-04-10 19:00:00 19.5 17 Norte 46 Norte 0 1018.1 -0.4 69
2019-04-10 18:00:00 19.8 15 Noroeste 40 Oeste 0 1018.1 -0.8 66
2019-04-10 17:00:00 20.5 13 Norte 45 Oeste 0 1018.1 -1.3 62
2019-04-10 16:00:00 20 16 Noroeste 40 Oeste 0 1018.5 -0.9 63
2019-04-10 15:00:00 21 13 Norte 40 Nordeste 0 1018.9 -0.7 61
2019-04-10 14:00:00 20.8 10 Norte 39 Nordeste 0 1019.4 0.1 63
2019-04-10 13:00:00 20.5 11 Noroeste 40 Oeste 0 1019.4 0.7 68
2019-04-10 12:00:00 19.5 12 Norte 36 Nordeste 0 1019.6 1.3 71
2019-04-10 11:00:00 20.1 13 Norte 42 Noroeste 0 1019.3 1.5 70
2019-04-10 10:00:00 19.4 15 Norte 40 Norte 0 1018.7 0.8 66
2019-04-10 09:00:00 18.2 15 Noroeste 44 Noroeste 0 1018.3 0.6 68
2019-04-10 08:00:00 17.5 19 Noroeste 41 Noroeste 0 1017.8 0.2 73
2019-04-10 07:00:00 17.5 14 Norte 37 Noroeste 0 1017.9 0.3 72
2019-04-10 06:00:00 17.6 15 Norte 48 Norte 0 1017.7 0.1 72
2019-04-10 05:00:00 17.5 15 Norte 47 Noroeste 0 1017.6 -0.4 76
2019-04-10 04:00:00 17.6 23 Noroeste 46 Norte 0 1017.6 -0.3 77
2019-04-10 03:00:00 17.6 18 Norte 41 Norte 0 1017.6 -0.9 77
2019-04-10 02:00:00 17.8 17 Noroeste 40 Norte 0 1018 -0.5 75
2019-04-10 01:00:00 18 16 Noroeste 54 Nordeste 0 1017.9 -0.3 72
2019-04-10 00:00:00 18.5 19 Noroeste 45 Noroeste 0 1018.5 0.4 72
2019-04-09 23:00:00 18.4 18 Noroeste 41 Noroeste 0 1018.5 1.1 74
2019-04-09 22:00:00 18.3 16 Noroeste 42 Oeste 0 1018.2 1 78
2019-04-09 21:00:00 18.5 15 Noroeste 37 Noroeste 0 1018.1 1 80
2019-04-09 20:00:00 19.5 14 Noroeste 31 Noroeste 0 1017.4 -0.4 75
2019-04-09 19:00:00 20.9 11 Noroeste 31 Oeste 0 1017.2 -1 71
2019-04-09 18:00:00 20.3 14 Noroeste 33 Oeste 0 1017.1 -1.7 73
2019-04-09 17:00:00 20.6 10 Noroeste 28 Noroeste 0 1017.8 -1.1 74
2019-04-09 16:00:00 19.8 8 Noroeste 29 Este 0 1018.2 -1.2 78
2019-04-09 15:00:00 19.8 8 Sur 31 Este 0 1018.8 -0.7 73
2019-04-09 14:00:00 21.4 16 Nordeste 35 Nordeste 0 1018.9 -0.7 69
2019-04-09 13:00:00 21.3 12 Norte 30 Nordeste 0 1019.4 -0.2 68
2019-04-09 12:00:00 21.9 6 Norte 24 Norte 0 1019.5 0 67
2019-04-09 11:00:00 20.8 7 Norte 24 Oeste 0 1019.6 0.4 70
2019-04-09 10:00:00 19.5 12 Noroeste 23 Noroeste 0 1019.6 1 73
2019-04-09 09:00:00 18.5 4 Noroeste 16 Norte 0 1019.5 1.1 74
2019-04-09 08:00:00 16.9 7 Noroeste 17 Norte 0 1019.2 0.6 75
2019-04-09 07:00:00 17.1 6 Noroeste 17 Noroeste 0 1018.6 -0.2 74
2019-04-09 06:00:00 17 10 Noroeste 16 Noroeste 0 1018.4 -0.8 74
2019-04-09 05:00:00 16.3 9 Noroeste 13 Noroeste 0 1018.6 -0.7 77
2019-04-09 04:00:00 16.8 9 Noroeste 14 Noroeste 0 1018.8 -0.7 76
2019-04-09 03:00:00 17.2 7 Noroeste 16 Noroeste 0 1019.2 -0.7 75
2019-04-09 02:00:00 17.8 8 Noroeste 22 Noroeste 0 1019.3 -0.9 73
2019-04-09 01:00:00 18.2 11 Norte 28 Norte 0 1019.5 -0.1 71
2019-04-09 00:00:00 18.3 11 Norte 28 Noroeste 0 1019.9 0.8 71
2019-04-08 23:00:00 18.3 11 Noroeste 28 Norte 0 1020.2 1.6 70
2019-04-08 22:00:00 18.4 8 Noroeste 23 Norte 0 1019.6 1 69
2019-04-08 21:00:00 18.5 12 Noroeste 27 Oeste 0 1019.1 0.7 68
2019-04-08 20:00:00 18.9 12 Noroeste 35 Oeste 0 1018.6 0.2 67
2019-04-08 19:00:00 19.9 15 Noroeste 37 Norte 0 1018.6 -0.2 65
2019-04-08 18:00:00 19.9 14 Noroeste 33 Noroeste 0 1018.4 -0.6 65
2019-04-08 17:00:00 21.1 13 Noroeste 36 Noroeste 0 1018.4 -1.5 62
2019-04-08 16:00:00 21.8 8 Noroeste 36 Noroeste 0 1018.8 -1.9 62
2019-04-08 15:00:00 22.1 8 Noroeste 32 Noroeste 0 1019 -1.7 62
2019-04-08 14:00:00 21.2 10 Norte 30 Nordeste 0 1019.9 -0.8 63
2019-04-08 13:00:00 20.6 6 Norte 32 Noroeste 0 1020.7 0.2 66
2019-04-08 12:00:00 19.8 13 Norte 37 Nordeste 0 1020.7 0.8 73
2019-04-08 11:00:00 19.4 6 Noroeste 23 Oeste 0 1020.7 1.3 67
2019-04-08 10:00:00 18.9 8 Noroeste 17 Norte 0 1020.5 1.4 68
2019-04-08 09:00:00 18.5 7 Norte 18 Nordeste 0 1019.9 0.9 74
2019-04-08 08:00:00 17.6 7 Noroeste 15 Oeste 0 1019.4 0.2 81
2019-04-08 07:00:00 17.6 6 Noroeste 18 Noroeste 0 1019.1 -0.4 81
2019-04-08 06:00:00 17.8 8 Norte 20 Norte 0 1019 -0.9 81
2019-04-08 05:00:00 17.9 7 Norte 19 Norte 0 1019.2 -1 81
2019-04-08 04:00:00 18 8 Norte 21 Nordeste 0 1019.5 -1 79
2019-04-08 03:00:00 17.8 8 Norte 23 Norte 0 1019.9 -0.7 78
2019-04-08 02:00:00 18 11 Norte 28 Noroeste 0 1020.2 -0.2 77
2019-04-08 01:00:00 17.5 8 Noroeste 16 Norte 0 1020.5 0.5 74
2019-04-08 00:00:00 17.9 6 Norte 18 Norte 0 1020.6 1 71
2019-04-07 23:00:00 18.2 10 Norte 19 Norte 0 1020.4 0.7 70
2019-04-07 22:00:00 18.2 10 Norte 21 Norte 0 1020 0.4 72
2019-04-07 21:00:00 18.3 9 Norte 20 Norte 0 1019.6 0.2 72
2019-04-07 20:00:00 19 0 Calma 9 Sur 0 1019.7 0.3 75
2019-04-07 19:00:00 19 7 Sur 15 Sur 0 1019.6 -0.1 75
2019-04-07 18:00:00 19.2 10 Sur 17 Sur 0 1019.4 -1 74
2019-04-07 17:00:00 19.7 8 Sur 15 Sur 0 1019.4 -1.7 72
2019-04-07 16:00:00 20.3 4 Sur 16 Este 0 1019.7 -1.8 71
2019-04-07 15:00:00 20.6 7 Nordeste 22 Nordeste 0 1020.4 -- 72
2019-04-07 14:00:00 19.9 9 Nordeste 24 Norte 0 1021.1 -0.1 72
2019-04-07 13:00:00 20.7 10 Nordeste 26 Nordeste 0 1021.5 0.7 71
2019-04-07 12:00:00 -- 14 Nordeste 24 Nordeste 0 -- -- --
2019-04-07 11:00:00 19.4 10 Nordeste 20 Este 0 1021.2 1.3 71
2019-04-07 10:00:00 19.1 4 Norte 14 Noroeste 0 1020.8 1.4 68
2019-04-07 09:00:00 16.7 10 Noroeste 16 Noroeste 0 1020.4 1.4 73
2019-04-07 08:00:00 15.2 10 Noroeste 15 Noroeste 0 1019.9 0.9 78
2019-04-07 07:00:00 15.4 10 Noroeste 15 Noroeste 0 1019.4 0.1 78
2019-04-07 06:00:00 15.9 10 Noroeste 15 Noroeste 0 1019 -0.6 77
2019-04-07 05:00:00 16 10 Noroeste 14 Noroeste 0 1019 -1 79
2019-04-07 04:00:00 16.4 8 Noroeste 22 Norte 0 1019.3 -1.2 78
2019-04-07 03:00:00 17.3 9 Norte 19 Norte 0 1019.6 -1.2 76
2019-04-07 02:00:00 17.4 11 Norte 23 Noroeste 0 1020 -0.5 75
2019-04-07 01:00:00 17.5 9 Norte 22 Norte 0 1020.5 0.4 75
2019-04-07 00:00:00 17.7 12 Norte 30 Norte 0 1020.8 1 75
2019-04-06 23:00:00 17.7 10 Norte 33 Noroeste 0 1020.5 1.2 74
2019-04-06 22:00:00 17.8 12 Noroeste 34 Oeste 0 1020.1 0.9 73
2019-04-06 21:00:00 17.8 12 Noroeste 36 Noroeste 0 1019.8 1.1 71
2019-04-06 20:00:00 18.2 11 Noroeste 41 Norte 0 1019.3 0.2 69
2019-04-06 19:00:00 19.3 14 Noroeste 40 Noroeste 0 1019.2 -0.1 65
2019-04-06 18:00:00 19.3 17 Noroeste 40 Oeste 0 1018.7 -1.1 65
2019-04-06 17:00:00 19.8 18 Noroeste 40 Noroeste 0 1019.1 -1 64
2019-04-06 16:00:00 19.9 18 Noroeste 39 Noroeste 0 1019.3 -0.9 63
2019-04-06 15:00:00 20 13 Norte 41 Norte 0 1019.8 -0.2 64
2019-04-06 14:00:00 20.2 13 Norte 43 Norte 0 1020.1 0.2 63
2019-04-06 13:00:00 20 13 Norte 41 Nordeste 0 1020.2 0.7 63
2019-04-06 12:00:00 18.8 14 Noroeste 40 Noroeste 0 1020 1.1 62
2019-04-06 11:00:00 19.2 14 Norte 44 Nordeste 0 1019.9 1.6 66
2019-04-06 10:00:00 18.2 16 Norte 40 Noroeste 0 1019.5 1.7 68
2019-04-06 09:00:00 17.6 21 Norte 48 Noroeste 0 1018.9 1.6 68
2019-04-06 08:00:00 17.1 13 Norte 41 Nordeste 0 1018.3 1.1 72
2019-04-06 07:00:00 17 11 Norte 31 Noroeste 0 1017.8 0.9 72
2019-04-06 06:00:00 16.9 13 Noroeste 39 Noroeste 0 1017.3 -0.3 70
2019-04-06 05:00:00 17 21 Norte 53 Noroeste 0 1017.2 -0.7 71
2019-04-06 04:00:00 17.1 24 Noroeste 54 Noroeste 0 1016.9 -1.9 77
2019-04-06 03:00:00 17.3 17 Norte 45 Norte 0 1017.6 -1.8 76
2019-04-06 02:00:00 17.3 22 Norte 53 Noroeste 0.1 1017.9 -1 79
2019-04-06 01:00:00 17.7 19 Norte 41 Norte 0 1018.8 0.2 72
2019-04-06 00:00:00 17.9 15 Norte 40 Nordeste 0 1019.4 1.8 68
2019-04-05 23:00:00 17.9 12 Norte 43 Norte 0 1018.9 1.7 68
2019-04-05 22:00:00 17.8 15 Norte 52 Norte 0 1018.6 1.4 71
2019-04-05 21:00:00 18.1 10 Norte 38 Norte 0 1017.6 0.6 72
2019-04-05 20:00:00 18.1 14 Norte 41 Norte 0 1017.2 0.4 69
2019-04-05 19:00:00 18.5 11 Noroeste 31 Nordeste 0 1017.2 0.3 71
2019-04-05 18:00:00 18.3 12 Norte 61 Nordeste 0 1017 -- 80
2019-04-05 17:00:00 19 14 Noroeste 44 Oeste 0 1016.8 -1.3 73
2019-04-05 16:00:00 19.9 13 Noroeste 41 Norte 0 1016.9 -1.2 72
2019-04-05 15:00:00 -- 17 Norte 40 Noroeste 0 -- -- --
2019-04-05 14:00:00 20 18 Noroeste 37 Noroeste 0 1018.1 0.4 69
2019-04-05 13:00:00 19.4 16 Noroeste 39 Noroeste 0 1018.1 1 71
2019-04-05 12:00:00 18.4 15 Norte 34 Norte 0 1018.1 1.6 73
2019-04-05 11:00:00 19.6 9 Norte 35 Noroeste 0 1017.7 1.7 69
2019-04-05 10:00:00 19 10 Noroeste 30 Noroeste 0 1017.1 1.4 71
2019-04-05 09:00:00 17.6 11 Noroeste 53 Norte 0 1016.5 1.5 74
2019-04-05 08:00:00 17.1 12 Norte 27 Noroeste 0 1016 1.1 75
2019-04-05 07:00:00 17 12 Norte 34 Norte 0 1015.7 0.7 73
2019-04-05 06:00:00 16.9 15 Noroeste 45 Noroeste 0 1015 -0.3 73
2019-04-05 05:00:00 17 14 Norte 33 Norte 0 1014.9 -0.6 74
2019-04-05 04:00:00 16.8 15 Norte 33 Norte 0 1015 -0.6 75
2019-04-05 03:00:00 16.1 19 Norte 45 Nordeste 0 1015.3 0.3 79
2019-04-05 02:00:00 17.4 15 Noroeste 40 Norte 0 1015.5 0.7 74
2019-04-05 01:00:00 17.6 14 Noroeste 32 Noroeste 0 1015.6 0.9 74
2019-04-05 00:00:00 17.6 14 Noroeste 37 Nordeste 0 1015 0.8 77
2019-04-04 23:00:00 17.6 12 Noroeste 29 Norte 0 1014.8 1.1 75
2019-04-04 22:00:00 17.7 10 Norte 26 Norte 0 1014.7 1.4 76
2019-04-04 21:00:00 17.7 9 Norte 23 Norte 0 1014.2 1.1 76
2019-04-04 20:00:00 18.1 9 Norte 30 Norte 0 1013.7 0.5 77
2019-04-04 19:00:00 18.4 12 Noroeste 30 Norte 0 1013.3 0.7 72
2019-04-04 18:00:00 19 10 Norte 35 Noroeste 0 1013.1 0.3 70
2019-04-04 17:00:00 20.2 11 Norte 35 Noroeste 0 1013.2 -0.1 68
2019-04-04 16:00:00 20.1 15 Noroeste 44 Oeste 0 1012.6 -0.8 67
2019-04-04 15:00:00 20.2 18 Norte 44 Noroeste 0 1012.8 -0.5 70
2019-04-04 14:00:00 20.3 12 Noroeste 37 Norte 0 1013.3 0.6 67
2019-04-04 13:00:00 19.7 11 Noroeste 38 Nordeste 0 1013.4 1.6 72
2019-04-04 12:00:00 19 12 Norte 38 Noroeste 0 1013.3 2.1 72
2019-04-04 11:00:00 18.6 16 Norte 38 Norte 0 1012.7 2.1 72
2019-04-04 10:00:00 17.9 16 Norte 46 Noroeste 0 1011.8 1.3 74
2019-04-04 09:00:00 17.2 17 Norte 39 Noroeste 0 1011.2 0.9 79
2019-04-04 08:00:00 16.5 12 Norte 30 Norte 0 1010.6 0.3 79
2019-04-04 07:00:00 15.9 6 Noroeste 11 Noroeste 0 1010.5 -0.1 85
2019-04-04 06:00:00 15.4 4 Norte 7 Norte 0 1010.3 -0.7 86
2019-04-04 05:00:00 14.6 6 Noroeste 12 Noroeste 0 1010.3 -1.1 90
2019-04-04 04:00:00 14.8 7 Noroeste 16 Oeste 0.4 1010.6 -1.2 91
2019-04-04 03:00:00 15.7 7 Noroeste 15 Norte 0 1011 -1.2 86
2019-04-04 02:00:00 15.7 9 Norte 19 Norte 0 1011.4 -0.5 86
2019-04-04 01:00:00 15.5 8 Noroeste 23 Norte 0 1011.8 0.4 88
2019-04-04 00:00:00 16.5 9 Norte 20 Norte 0 1012.2 1.5 83
2019-04-03 23:00:00 16.8 5 Noroeste 14 Nordeste 0 1011.9 1.8 82
2019-04-03 22:00:00 17.3 3 Noroeste 21 Norte 0 1011.4 1.4 80
2019-04-03 21:00:00 17.7 10 Norte 27 Noroeste 0 1010.7 0.8 78
2019-04-03 20:00:00 18.5 12 Norte 30 Noroeste 0 1010.1 0.4 71
2019-04-03 19:00:00 18.9 17 Noroeste 37 Noroeste 0 1010 0 71
2019-04-03 18:00:00 20.5 3 Sudeste 10 Este 0 1009.9 -0.4 67
2019-04-03 17:00:00 20.5 5 Sudeste 17 Nordeste 0 1009.7 -1.1 65
2019-04-03 16:00:00 19.8 6 Nordeste 26 Sur 0 1010 -1.6 65
2019-04-03 15:00:00 20.4 8 Noroeste 32 Noroeste 0 1010.3 -1.5 62
2019-04-03 14:00:00 21.6 8 Noroeste 26 Norte 0 1010.8 -0.7 57
2019-04-03 13:00:00 20.2 6 Norte 28 Nordeste 0 1011.6 0.6 66
2019-04-03 12:00:00 18.9 10 Norte 28 Norte 0 1011.8 1.2 68
2019-04-03 11:00:00 18.2 12 Norte 24 Noroeste 0 1011.5 1.4 73
2019-04-03 10:00:00 18.1 8 Norte 21 Nordeste 0 1011 1.2 72
2019-04-03 09:00:00 16.7 5 Norte 14 Noroeste 0 1010.6 1.2 78
2019-04-03 08:00:00 15.4 7 Noroeste 16 Noroeste 0 1010.1 0.7 81
2019-04-03 07:00:00 14.7 11 Noroeste 18 Noroeste 0 1009.8 -0.1 83
2019-04-03 06:00:00 15.3 9 Noroeste 13 Noroeste 0 1009.4 -0.7 83
2019-04-03 05:00:00 14.8 9 Noroeste 14 Noroeste 0 1009.4 -1 86
2019-04-03 04:00:00 15.3 9 Noroeste 15 Noroeste 0 1009.9 -1 83
2019-04-03 03:00:00 15.7 9 Noroeste 15 Noroeste 0 1010.1 -0.9 83
2019-04-03 02:00:00 16.1 9 Noroeste 22 Nordeste 0 1010.4 -0.5 83
2019-04-03 01:00:00 17.1 10 Norte 22 Norte 0 1010.9 1 80
2019-04-03 00:00:00 17.4 13 Norte 31 Norte 0 1011 1.9 83
2019-04-02 23:00:00 17.1 9 Norte 24 Noroeste 0 1010.9 2 80
2019-04-02 22:00:00 17.1 11 Noroeste 27 Noroeste 0 1009.9 1 80
2019-04-02 21:00:00 17.3 13 Noroeste 35 Noroeste 0 1009.1 0.1 82
2019-04-02 20:00:00 17.4 16 Norte 31 Noroeste 0 1008.9 -0.2 84
2019-04-02 19:00:00 17.9 9 Norte 28 Norte 0 1008.9 -0.5 85
2019-04-02 18:00:00 17.1 11 Norte 26 Noroeste 0 1009 -0.8 89
2019-04-02 17:00:00 16.8 11 Norte 28 Norte 0 1009.1 -1.5 92
2019-04-02 16:00:00 17.5 6 Norte 27 Nordeste 0 1009.4 -1.4 93
2019-04-02 15:00:00 18 8 Nordeste 17 Este 0 1009.8 -1.2 85
2019-04-02 14:00:00 16.8 9 Norte 18 Nordeste 0 1010.6 0 92
2019-04-02 13:00:00 17.6 7 Nordeste 18 Nordeste 0 1010.8 0.3 92
2019-04-02 12:00:00 16.1 12 Nordeste 19 Este 0.2 1011 1 94
2019-04-02 11:00:00 16.4 8 Norte 17 Norte 0.1 1010.6 1.2 92
2019-04-02 10:00:00 15.6 12 Norte 21 Norte 0.3 1010.5 1.3 93
2019-04-02 09:00:00 15.1 5 Norte 19 Norte 1.9 1010 0.8 95
2019-04-02 08:00:00 16 10 Norte 21 Norte 0 1009.4 0.2 88
2019-04-02 07:00:00 15.2 10 Norte 22 Noroeste 0 1009.2 -0.3 92
2019-04-02 06:00:00 16.2 9 Noroeste 21 Nordeste 0 1009.2 -0.8 83
2019-04-02 05:00:00 16.3 14 Norte 22 Norte 0 1009.2 -1.6 81
2019-04-02 04:00:00 15.9 12 Norte 20 Norte 0 1009.5 -1.8 79
2019-04-02 03:00:00 15.4 10 Noroeste 23 Norte 0 1010 -1.9 80
2019-04-02 02:00:00 16 10 Norte 25 Noroeste 0 1010.8 -1.7 77
2019-04-02 01:00:00 15.6 12 Norte 28 Noroeste 0 1011.3 -0.4 80
2019-04-02 00:00:00 15.6 12 Noroeste 40 Oeste 0 1011.9 0.8 82
2019-04-01 23:00:00 15.3 15 Noroeste 45 Noroeste 0 1012.5 1.8 86
2019-04-01 22:00:00 17.1 8 Norte 17 Noroeste 0 1011.7 1.1 90
2019-04-01 21:00:00 17.2 4 Nordeste 19 Sur 2.2 1011.1 0.4 94
2019-04-01 20:00:00 18.5 15 Sudeste 28 Sudeste 2.9 1010.7 -0.2 89
2019-04-01 19:00:00 18.1 7 Sudeste 35 Sudeste 0.9 1010.6 -0.9 92
2019-04-01 18:00:00 18.3 7 Sudeste 27 Sudeste 0 1010.7 -1.4 90
2019-04-01 17:00:00 19.1 13 Sudeste 26 Sudeste 0 1010.9 -2 85
2019-04-01 16:00:00 19.9 12 Sudeste 18 Sudeste 0 1011.5 -2 78
2019-04-01 15:00:00 20.2 12 Sudeste 21 Sur 0 1012.1 -2 76
2019-04-01 14:00:00 20.6 9 Sudeste 16 Sudeste 0 1012.9 -1.3 75
2019-04-01 13:00:00 20.6 7 Sudeste 11 Sur 0 1013.5 -0.6 74
2019-04-01 12:00:00 21.1 4 Sudeste 11 Sudeste 0 1014.1 0.7 72
2019-04-01 11:00:00 20.4 3 Este 16 Nordeste 0 1014.2 0.7 72
2019-04-01 10:00:00 19.4 7 Nordeste 15 Nordeste 0 1014.1 1 72
2019-04-01 09:00:00 16.4 8 Norte 15 Noroeste 0 1013.4 0.4 78
2019-04-01 08:00:00 15.4 9 Noroeste 17 Noroeste 0 1013.5 0.4 80
2019-04-01 07:00:00 15.4 11 Noroeste 15 Noroeste 0 1013.1 -0.2 79
2019-04-01 06:00:00 15.8 9 Noroeste 13 Noroeste 0 1013 -0.7 80
2019-04-01 05:00:00 16.1 9 Noroeste 13 Noroeste 0 1013.1 -1.3 79
2019-04-01 04:00:00 16.4 9 Noroeste 14 Noroeste 0 1013.3 -1.4 78
2019-04-01 03:00:00 16.6 8 Noroeste 14 Noroeste 0 1013.7 -1.3 77
2019-04-01 02:00:00 16.9 8 Noroeste 18 Norte 0 1014.4 -0.4 77
2019-04-01 01:00:00 17.6 8 Noroeste 18 Norte 0 1014.7 0.3 76
2019-04-01 00:00:00 17.9 10 Noroeste 24 Norte 0 1015 0.8 75
2019-03-31 23:00:00 18.2 11 Norte 23 Nordeste 0 1014.8 0.9 76
2019-03-31 22:00:00 18.3 10 Norte 28 Norte 0 1014.4 0.6 76
2019-03-31 21:00:00 18.6 10 Norte 28 Nordeste 0 1014.2 0.4 77
2019-03-31 20:00:00 18.8 11 Norte 30 Noroeste 0 1013.9 0.3 79
2019-03-31 19:00:00 19.3 13 Noroeste 30 Noroeste 0 1013.8 -0.1 74
2019-03-31 18:00:00 20.3 6 Nordeste 28 Nordeste 0 1013.8 -0.3 73
2019-03-31 17:00:00 20.6 12 Noroeste 32 Nordeste 0 1013.6 -1.8 65
2019-03-31 16:00:00 22.1 12 Norte 40 Norte 0 1013.9 -1.4 63
2019-03-31 15:00:00 21.5 12 Noroeste 33 Noroeste 0 1014.1 -1 66
2019-03-31 14:00:00 19.9 6 Sudeste 22 Nordeste 0 1015.4 -0.6 77
2019-03-31 13:00:00 19.7 14 Sur 28 Noroeste 0 1015.3 -0.4 75
2019-03-31 12:00:00 21.4 10 Norte 24 Norte 0 1015.1 0.2 64
2019-03-31 11:00:00 19.5 9 Sur 16 Sur 0 1016 1.6 71
2019-03-31 10:00:00 20.8 0 Calma 11 Noroeste 0 1015.7 1.4 65
2019-03-31 09:00:00 17.8 7 Noroeste 14 Noroeste 0 1014.9 0.9 73
2019-03-31 08:00:00 17.6 3 Noroeste 13 Nordeste 0 1014.4 0.2 76
2019-03-31 07:00:00 17.1 2 Nordeste 10 Noroeste 0 1014.3 -1 78
2019-03-31 06:00:00 16.8 4 Noroeste 13 Noroeste 0 1014 -2 78
2019-03-31 05:00:00 15.9 6 Norte 12 Norte 0 1014.2 -2.4 78
2019-03-31 04:00:00 16.4 5 Norte 8 Norte 0 1015.3 -1.3 75
2019-03-31 00:00:00 16.7 6 Noroeste 13 Noroeste 0 1016.6 0.2 71
2019-03-30 23:00:00 17.6 5 Noroeste 9 Noroeste 0 1016.4 0.7 68
2019-03-30 22:00:00 18.1 0 Calma 9 Oeste 0 1016.9 1.6 63
2019-03-30 21:00:00 18.5 0 Calma 12 Norte 0 1016.4 1.5 60
2019-03-30 20:00:00 19.1 6 Oeste 20 Nordeste 0 1015.7 0.9 56
2019-03-30 19:00:00 19.9 8 Noroeste 20 Noroeste 0 1015.3 0.3 53
2019-03-30 18:00:00 21 10 Norte 22 Oeste 0 1014.9 0.1 53
2019-03-30 17:00:00 20.2 8 Sur 19 Sudeste 0 1014.8 -0.3 59
2019-03-30 16:00:00 22.4 3 Nordeste 26 Norte 0 1015 -0.7 51
2019-03-30 15:00:00 21.3 10 Noroeste 32 Noroeste 0 1014.8 -1.4 50
2019-03-30 14:00:00 21.3 12 Noroeste 32 Noroeste 0 1015.1 -0.8 50
2019-03-30 13:00:00 21.3 13 Noroeste 39 Oeste 0 1015.7 -0.2 54
2019-03-30 12:00:00 20.1 14 Norte 35 Noroeste 0 1016.2 1 56
2019-03-30 11:00:00 19.5 12 Norte 32 Nordeste 0 1015.9 1.4 62
2019-03-30 10:00:00 18.8 13 Norte 29 Noroeste 0 1015.9 1.7 72
2019-03-30 09:00:00 18.5 10 Norte 28 Norte 0 1015.2 1.5 77
2019-03-30 08:00:00 17 10 Norte 25 Noroeste 0 1014.5 0.9 78
2019-03-30 07:00:00 14.8 7 Noroeste 22 Noroeste 0 1014.2 0.5 86
2019-03-30 06:00:00 15.6 8 Noroeste 18 Noroeste 0 1013.7 -0.3 81
2019-03-30 05:00:00 15.2 9 Noroeste 17 Noroeste 0 1013.6 -0.8 72
2019-03-30 04:00:00 14.8 9 Noroeste 16 Noroeste 0 1013.7 -1.1 75
2019-03-30 03:00:00 15.4 9 Noroeste 14 Noroeste 0 1014 -1.3 75
2019-03-30 02:00:00 15.4 10 Noroeste 14 Noroeste 0 1014.4 -1 77
2019-03-30 01:00:00 15.8 8 Noroeste 15 Noroeste 0 1014.8 -0.4 79
2019-03-30 00:00:00 16.2 10 Noroeste 16 Norte 0 1015.3 0.7 77
2019-03-29 23:00:00 16.4 9 Noroeste 15 Noroeste 0 1015.4 1.4 77
2019-03-29 22:00:00 16.9 6 Noroeste 16 Norte 0 1015.2 1.8 74
2019-03-29 21:00:00 18.2 9 Norte 17 Norte 0 1014.6 1.4 70
2019-03-29 20:00:00 18.5 6 Noroeste 17 Norte 0 1014 0.7 72
2019-03-29 19:00:00 19.5 4 Sur 10 Este 0 1013.4 -0.1 62
2019-03-29 18:00:00 20.4 2 Este 13 Nordeste 0 1013.2 -0.8 64
2019-03-29 17:00:00 20.2 6 Nordeste 23 Norte 0 1013.3 -1.2 58
2019-03-29 16:00:00 21.3 4 Este 17 Este 0 1013.5 -1.9 63
2019-03-29 15:00:00 20.7 5 Este 19 Este 0 1014 -1.9 64
2019-03-29 14:00:00 21 4 Este 20 Nordeste 0 1014.5 -1.5 66
2019-03-29 13:00:00 20.3 9 Nordeste 19 Nordeste 0 1015.4 -0.5 71
2019-03-29 12:00:00 20.8 3 Sudeste 12 Sudeste 0 1015.9 0.3 73
2019-03-29 11:00:00 19.9 6 Sudeste 10 Sudeste 0 1016 0.8 78
2019-03-29 10:00:00 20 2 Sudeste 7 Sudeste 0 1015.9 1 78
2019-03-29 09:00:00 17.5 4 Norte 12 Noroeste 0 1015.6 1.3 84
2019-03-29 08:00:00 15.5 6 Noroeste 12 Noroeste 0 1015.2 1.1 92
2019-03-29 07:00:00 15.3 7 Noroeste 14 Noroeste 0 1014.9 0.6 93
2019-03-29 06:00:00 15.3 8 Noroeste 15 Noroeste 0 1014.3 -0.3 95
2019-03-29 05:00:00 14.9 9 Noroeste 22 Noroeste 8.1 1014.1 -0.8 95
2019-03-29 04:00:00 15.4 11 Noroeste 26 Norte 0.2 1014.3 -1.2 92
2019-03-29 03:00:00 16.7 4 Norte 16 Norte 0 1014.6 -1.3 89
2019-03-29 02:00:00 16.8 7 Norte 16 Noroeste 0 1014.9 -1.3 85
2019-03-29 01:00:00 16.7 9 Noroeste 15 Noroeste 0 1015.5 -0.6 84
2019-03-29 00:00:00 16.6 8 Norte 14 Noroeste 0 1015.9 0 86
2019-03-28 23:00:00 16.8 9 Noroeste 14 Noroeste 0 1016.2 0.7 88
2019-03-28 22:00:00 17.5 6 Norte 11 Noroeste 0 1016.1 1.2 86
2019-03-28 21:00:00 18.2 5 Noroeste 11 Norte 0 1015.9 1.2 83
2019-03-28 20:00:00 18.5 4 Norte 11 Norte 0 1015.5 0.9 80
2019-03-28 19:00:00 19 6 Oeste 17 Este 0 1014.9 0.2 74
2019-03-28 18:00:00 19.3 3 Norte 18 Nordeste 0 1014.7 -0.4 75
2019-03-28 17:00:00 19.8 9 Nordeste 15 Norte 0 1014.6 -1.1 73
2019-03-28 16:00:00 20.6 5 Este 12 Este 0 1014.7 -1.5 72
2019-03-28 15:00:00 21.1 3 Este 12 Este 0 1015.1 -1.3 72
2019-03-28 14:00:00 20.9 4 Sudeste 12 Este 0 1015.7 -0.7 75
2019-03-28 13:00:00 20.3 8 Sudeste 15 Sudeste 0 1016.2 0 77
2019-03-28 12:00:00 20.6 9 Sudeste 16 Sudeste 0 1016.4 0.3 79
2019-03-28 11:00:00 19.6 8 Sudeste 12 Sur 0 1016.4 0.7 81
2019-03-28 10:00:00 18.4 9 Sur 16 Sudeste 0 1016.2 1.2 88
2019-03-28 09:00:00 17.9 4 Norte 12 Norte 0 1016.1 1.3 79
2019-03-28 08:00:00 16.7 7 Noroeste 15 Noroeste 0 1015.7 1.1 82
2019-03-28 07:00:00 16 7 Noroeste 15 Noroeste 0 1015 0.3 84
2019-03-28 06:00:00 15.9 8 Noroeste 17 Noroeste 0 1014.8 0 85
2019-03-28 05:00:00 15.8 11 Noroeste 18 Noroeste 0 1014.6 -0.4 86
2019-03-28 04:00:00 15.5 8 Noroeste 15 Noroeste 0 1014.7 -0.5 86
2019-03-28 03:00:00 16.2 7 Noroeste 12 Noroeste 0 1014.8 -0.6 83
2019-03-28 02:00:00 16.3 7 Noroeste 14 Noroeste 0 1015 -0.5 82
2019-03-28 01:00:00 16.8 8 Norte 16 Noroeste 0 1015.2 -0.2 80
2019-03-28 00:00:00 16.9 9 Noroeste 16 Noroeste 0 1015.4 0.6 81
2019-03-27 23:00:00 17.2 10 Noroeste 18 Noroeste 0 1015.5 1.3 80
2019-03-27 22:00:00 17.3 9 Noroeste 19 Noroeste 0 1015.4 1.5 83
2019-03-27 21:00:00 17.8 6 Noroeste 19 Noroeste 0 1014.8 1.2 81
2019-03-27 20:00:00 18.2 9 Noroeste 14 Noroeste 0 1014.2 1 80
2019-03-27 19:00:00 18.4 7 Noroeste 17 Noroeste 0 1013.9 0.9 83
2019-03-27 18:00:00 18.8 8 Noroeste 21 Norte 0 1013.6 0.2 81
2019-03-27 17:00:00 20.3 5 Norte 26 Norte 0 1013.2 -0.5 73
2019-03-27 16:00:00 20.3 13 Noroeste 24 Noroeste 0 1013 -0.9 74
2019-03-27 15:00:00 18.5 9 Noroeste 19 Noroeste 0.3 1013.4 -0.6 89
2019-03-27 14:00:00 19.2 10 Norte 22 Este 0.2 1013.7 -0.2 86
2019-03-27 13:00:00 21.1 5 Sudeste 26 Nordeste 0 1013.9 0.1 75
2019-03-27 12:00:00 21.5 8 Noroeste 34 Noroeste 0 1014 1 69
2019-03-27 11:00:00 20.7 9 Norte 31 Norte 0 1013.9 1.3 74
2019-03-27 10:00:00 20.1 10 Noroeste 31 Nordeste 0 1013.8 1.9 72
2019-03-27 09:00:00 19.1 13 Norte 30 Norte 0 1013 2 77
2019-03-27 08:00:00 18.4 11 Norte 26 Norte 0 1012.6 2 80
2019-03-27 07:00:00 18.3 13 Norte 28 Norte 0 1011.9 1.4 78
2019-03-27 06:00:00 18.1 13 Norte 31 Noroeste 0 1011 0.1 79
2019-03-27 05:00:00 18.2 14 Norte 31 Noroeste 0 1010.6 -0.3 80
2019-03-27 04:00:00 18.3 14 Noroeste 31 Noroeste 0 1010.5 -0.4 81
2019-03-27 03:00:00 18.3 12 Norte 31 Noroeste 0 1010.9 0.1 82
2019-03-27 02:00:00 18.4 15 Noroeste 32 Noroeste 0 1010.9 0.6 81
2019-03-27 01:00:00 18.5 17 Norte 35 Noroeste 0 1010.9 1.1 80
2019-03-27 00:00:00 18.6 18 Norte 42 Norte 0 1010.8 1.4 80
2019-03-26 23:00:00 18.9 22 Norte 46 Noroeste 0 1010.3 1.3 77
2019-03-26 22:00:00 18.9 24 Norte 41 Norte 0 1009.8 1.7 77
2019-03-26 21:00:00 19 19 Norte 45 Norte 0 1009.4 2 76
2019-03-26 20:00:00 19.1 17 Norte 42 Norte 0 1009 1.9 73
2019-03-26 19:00:00 19.8 15 Norte 29 Norte 0 1008.1 1.3 78
2019-03-26 18:00:00 20.8 9 Norte 22 Nordeste 0 1007.4 0.7 71
2019-03-26 17:00:00 20.5 4 Sudeste 12 Sur 0 1007.1 0 76
2019-03-26 16:00:00 20.2 6 Sur 12 Sur 0 1006.8 -0.4 73
2019-03-26 15:00:00 20.2 8 Sur 14 Sur 0 1006.7 -0.8 69
2019-03-26 14:00:00 19.9 10 Sudeste 14 Sur 0 1007.1 -0.4 71
2019-03-26 13:00:00 20.5 5 Sudeste 13 Sudeste 0 1007.2 0.1 67
2019-03-26 12:00:00 20.3 8 Sudeste 14 Sudeste 0 1007.5 1 67
2019-03-26 11:00:00 20.1 5 Sudeste 14 Sur 0 1007.5 1.8 65
2019-03-26 10:00:00 18.7 9 Sur 17 Sur 0 1007.1 2.1 69
2019-03-26 09:00:00 18.2 6 Sur 12 Sudeste 0 1006.5 1.8 71
2019-03-26 08:00:00 16 2 Norte 12 Noroeste 0 1005.7 0.9 73
2019-03-26 07:00:00 14.8 6 Noroeste 12 Noroeste 0 1005 0.4 76
2019-03-26 06:00:00 13.4 7 Norte 14 Noroeste 0 1004.7 -0.3 85
2019-03-26 05:00:00 13.8 7 Noroeste 15 Noroeste 0 1004.8 -0.8 86
2019-03-26 04:00:00 13.7 9 Noroeste 16 Norte 0 1004.6 -1.1 89
2019-03-26 03:00:00 14.1 7 Noroeste 16 Noroeste 0 1005 -0.8 87
2019-03-26 02:00:00 13.8 9 Noroeste 17 Noroeste 0 1005.6 -0.3 91
2019-03-26 01:00:00 14.1 7 Norte 12 Noroeste 0 1005.7 0 90
2019-03-26 00:00:00 14.8 5 Noroeste 10 Noroeste 0 1005.8 0.4 87
2019-03-25 23:00:00 14.8 7 Noroeste 14 Noroeste 0 1005.9 1.1 88
2019-03-25 22:00:00 15 6 Noroeste 15 Noroeste 0 1005.7 1.2 90
2019-03-25 21:00:00 15 8 Norte 19 Noroeste 0.4 1005.4 1.2 91
2019-03-25 20:00:00 14.7 11 Noroeste 21 Noroeste 1.4 1004.8 0.9 95
2019-03-25 19:00:00 15 9 Norte 17 Norte 3.1 1004.5 0.6 96
2019-03-25 18:00:00 17 4 Este 21 Sudeste 0.2 1004.2 -0.3 89
2019-03-25 17:00:00 18 2 Sudoeste 10 Sudeste 0 1003.9 -1.3 84
2019-03-25 16:00:00 17.2 7 Sudeste 17 Sudeste 0 1003.9 -2.6 86
2019-03-25 15:00:00 17.4 0 Calma 11 Sudeste 0 1004.5 -2.7 84
2019-03-25 14:00:00 18.4 2 Sur 8 Este 0 1005.2 -2.4 82
2019-03-25 13:00:00 16.3 2 Este 9 Noroeste 0.2 1006.5 -1.3 89
2019-03-25 12:00:00 16.3 0 Calma 11 Este 0 1007.2 -0.2 89
2019-03-25 11:00:00 15.8 2 Este 14 Nordeste 2.2 1007.6 0.6 95
2019-03-25 10:00:00 15.8 0 Calma 8 Nordeste 0.7 1007.8 1.2 95
2019-03-25 09:00:00 15.3 2 Norte 9 Nordeste 2.8 1007.4 1.1 95
2019-03-25 08:00:00 15.7 0 Calma 11 Noroeste 0.1 1007 0.8 94
2019-03-25 07:00:00 16 0 Calma 23 Sudeste 2.2 1006.6 0 92
2019-03-25 06:00:00 16.9 2 Norte 10 Noroeste 0 1006.3 -0.9 79
2019-03-25 05:00:00 16.8 6 Norte 13 Noroeste 0 1006.2 -1.4 76
2019-03-25 04:00:00 16.5 6 Noroeste 12 Norte 0 1006.6 -1.5 77
2019-03-25 03:00:00 16.7 5 Norte 10 Norte 0 1007.2 -1.4 76
2019-03-25 02:00:00 16.6 6 Norte 14 Noroeste 0 1007.6 -1.8 77
2019-03-25 01:00:00 16.5 5 Norte 10 Noroeste 0 1008.1 -1.5 79
2019-03-25 00:00:00 16.6 6 Norte 10 Noroeste 0 1008.6 -0.7 80